Darstellungsparameter: Aktuell verwendete Einstellungen:
Skalierung der Graphiken ... ?
xyx+y,   Skalierungsfaktor:      Skalierung: Modus: x, Faktor: 1
Darstellungszeitraum ... ?
Vom - - bis: - -   Zeitraum: 11.05.2021 - 11.05.2021
Min/Max/Avg-Anzeige ... ?
Zeige MMA aktuell
Zeige MMA Monat
Zeige MMA alles
Zeige --A aktuell
Zeige --A Monat
Zeige --A alles
Keine MMA-Anzeige
MMA:
Minimum Maximum Average (ber die Originaldaten)
MMA-Basis: 11.05.2021 - 11.05.2021
Quicknavigation für Darstellung... ?
Tage:      1T, 2T, 3T, 5T -1T -2T -3T -5T +1T +2T +3T +5T
Wochen: 1W, 2W, 3W -1W -2W -3W +1W +2W +3W
Monate: 1M, 3M, 6M -1M -3M -6M +1M +3M +6M
Jahre:    1J, 3J, 5J, 10J -1J -3J -5J -10J +1J +3J +5J +10J
Nutze für die Darstellung ... ?
Originaldaten oder Mittelwerte auf ...
Stundenbasis Tagesbasis Wochenbasis
Monatsbasis Jahresbasis      Datenbasis: Original-Daten
Darstellen als:
Statistik (Auto) Statistik J:M      Darstellung:

Der gewünschte Datumsbereich war nicht gültig/verfügbar und wurde korrigiert....
Das angegebene Enddatum (20.08.2024 23:59:59) liegt in der Zukunft.
Das angegebene Startdatum (21.05.2024 00:00:00) liegt in der Zukunft.


Zur Graphik,    zurück zur Übersicht aller Sensoren.
 
Tabellarische Datenbersicht: ?
 
Sensor: Nr:Datum:Temp:Feuchte:Taupunkt:
Aussen-T/F 1 11-05-2021 02:00:00 13.2 C 95 % 12.42 C
2 11-05-2021 02:05:00 13.2 C 95 % 12.42 C
3 11-05-2021 02:10:00 13.2 C 95 % 12.42 C
4 11-05-2021 02:15:00 13.2 C 95 % 12.42 C
5 11-05-2021 02:20:00 13.1 C 95 % 12.32 C
6 11-05-2021 02:25:00 13.1 C 95 % 12.32 C
7 11-05-2021 02:30:00 13.1 C 95 % 12.32 C
8 11-05-2021 02:35:00 13.1 C 95 % 12.32 C
9 11-05-2021 02:40:00 13.1 C 95 % 12.32 C
10 11-05-2021 02:45:00 13.1 C 95 % 12.32 C
11 11-05-2021 02:50:00 13.1 C 95 % 12.32 C
12 11-05-2021 02:55:00 13 C 95 % 12.22 C
13 11-05-2021 03:00:00 13 C 95 % 12.22 C
14 11-05-2021 03:05:00 13 C 95 % 12.22 C
15 11-05-2021 03:10:00 13 C 95 % 12.22 C
16 11-05-2021 03:15:00 13 C 95 % 12.22 C
17 11-05-2021 03:20:00 12.9 C 95 % 12.12 C
18 11-05-2021 03:25:00 12.9 C 95 % 12.12 C
19 11-05-2021 03:30:00 12.9 C 95 % 12.12 C
20 11-05-2021 03:35:00 12.9 C 95 % 12.12 C
21 11-05-2021 03:40:00 12.9 C 95 % 12.12 C
22 11-05-2021 03:45:00 12.9 C 95 % 12.12 C
23 11-05-2021 03:50:00 12.9 C 95 % 12.12 C
24 11-05-2021 03:55:00 12.9 C 95 % 12.12 C
25 11-05-2021 04:00:00 12.8 C 95 % 12.02 C
Sensor: Nr:Datum:Temp:Feuchte:Taupunkt:
Aussen-T/F 26 11-05-2021 04:05:00 12.8 C 95 % 12.02 C
27 11-05-2021 04:10:00 12.8 C 95 % 12.02 C
28 11-05-2021 04:15:00 12.8 C 95 % 12.02 C
29 11-05-2021 04:20:00 12.7 C 95 % 11.92 C
30 11-05-2021 04:25:00 12.7 C 95 % 11.92 C
31 11-05-2021 04:30:00 12.7 C 95 % 11.92 C
32 11-05-2021 04:35:00 12.7 C 95 % 11.92 C
33 11-05-2021 04:40:00 12.7 C 95 % 11.92 C
34 11-05-2021 04:45:00 12.7 C 96 % 12.08 C
35 11-05-2021 04:50:00 12.6 C 96 % 11.98 C
36 11-05-2021 04:55:00 12.6 C 96 % 11.98 C
37 11-05-2021 05:00:00 12.6 C 96 % 11.98 C
38 11-05-2021 05:05:00 12.6 C 96 % 11.98 C
39 11-05-2021 05:10:00 12.6 C 96 % 11.98 C
40 11-05-2021 05:15:00 12.5 C 95 % 11.72 C
41 11-05-2021 05:20:00 12.4 C 95 % 11.62 C
42 11-05-2021 05:25:00 12.4 C 95 % 11.62 C
43 11-05-2021 05:30:00 12.4 C 95 % 11.62 C
44 11-05-2021 05:35:00 12.4 C 96 % 11.78 C
45 11-05-2021 05:40:00 12.4 C 96 % 11.78 C
46 11-05-2021 05:45:00 12.4 C 96 % 11.78 C
47 11-05-2021 05:50:00 12.4 C 96 % 11.78 C
48 11-05-2021 05:55:00 12.3 C 96 % 11.68 C
49 11-05-2021 06:00:00 12.3 C 96 % 11.68 C
50 11-05-2021 06:05:00 12.3 C 96 % 11.68 C
Sensor: Nr:Datum:Temp:Feuchte:Taupunkt:
Aussen-T/F 51 11-05-2021 06:10:00 12.3 C 96 % 11.68 C
52 11-05-2021 06:15:00 12.3 C 96 % 11.68 C
53 11-05-2021 06:20:00 12.3 C 96 % 11.68 C
54 11-05-2021 06:25:00 12.3 C 96 % 11.68 C
55 11-05-2021 06:30:00 12.3 C 96 % 11.68 C
56 11-05-2021 06:35:00 12.2 C 96 % 11.58 C
57 11-05-2021 06:40:00 12.2 C 96 % 11.58 C
58 11-05-2021 06:45:00 12.1 C 96 % 11.48 C
59 11-05-2021 06:50:00 11.9 C 96 % 11.28 C
60 11-05-2021 06:55:00 11.8 C 96 % 11.18 C
61 11-05-2021 07:00:00 11.8 C 96 % 11.18 C
62 11-05-2021 07:05:00 11.9 C 96 % 11.28 C
63 11-05-2021 07:10:00 12 C 96 % 11.38 C
64 11-05-2021 07:15:00 12.1 C 96 % 11.48 C
65 11-05-2021 07:20:00 12.2 C 96 % 11.58 C
66 11-05-2021 07:25:00 12.3 C 96 % 11.68 C
67 11-05-2021 07:30:00 12.4 C 96 % 11.78 C
68 11-05-2021 07:35:00 12.6 C 96 % 11.98 C
69 11-05-2021 07:40:00 12.7 C 96 % 12.08 C
70 11-05-2021 07:45:00 12.8 C 97 % 12.34 C
71 11-05-2021 07:50:00 12.9 C 97 % 12.44 C
72 11-05-2021 07:55:00 12.9 C 96 % 12.28 C
73 11-05-2021 08:00:00 12.9 C 96 % 12.28 C
74 11-05-2021 08:05:00 12.9 C 96 % 12.28 C
75 11-05-2021 08:10:00 13 C 96 % 12.38 C
Sensor: Nr:Datum:Temp:Feuchte:Taupunkt:
Aussen-T/F 76 11-05-2021 08:15:00 13.1 C 96 % 12.48 C
77 11-05-2021 08:20:00 13.1 C 96 % 12.48 C
78 11-05-2021 08:25:00 13.1 C 96 % 12.48 C
79 11-05-2021 08:30:00 13.1 C 96 % 12.48 C
80 11-05-2021 08:35:00 13.1 C 96 % 12.48 C
81 11-05-2021 08:40:00 13.2 C 96 % 12.58 C
82 11-05-2021 08:45:00 13.2 C 96 % 12.58 C
83 11-05-2021 08:50:00 13.3 C 96 % 12.68 C
84 11-05-2021 08:55:00 13.3 C 96 % 12.68 C
85 11-05-2021 09:00:00 13.3 C 96 % 12.68 C
86 11-05-2021 09:05:00 13.4 C 96 % 12.78 C
87 11-05-2021 09:10:00 13.5 C 96 % 12.87 C
88 11-05-2021 09:15:00 13.6 C 96 % 12.97 C
89 11-05-2021 09:20:00 13.6 C 96 % 12.97 C
90 11-05-2021 09:25:00 13.5 C 96 % 12.87 C
91 11-05-2021 09:30:00 13.4 C 96 % 12.78 C
92 11-05-2021 09:35:00 13.4 C 96 % 12.78 C
93 11-05-2021 09:40:00 13.5 C 96 % 12.87 C
94 11-05-2021 09:45:00 13.5 C 96 % 12.87 C
95 11-05-2021 09:50:00 13.6 C 96 % 12.97 C
96 11-05-2021 09:55:00 13.6 C 95 % 12.81 C
97 11-05-2021 10:00:00 13.7 C 95 % 12.91 C
98 11-05-2021 10:05:00 13.6 C 95 % 12.81 C
99 11-05-2021 10:10:00 13.8 C 95 % 13.01 C
100 11-05-2021 10:15:00 13.8 C 94 % 12.85 C
Sensor: Nr:Datum:Temp:Feuchte:Taupunkt:
Aussen-T/F 101 11-05-2021 10:20:00 13.8 C 94 % 12.85 C
102 11-05-2021 10:25:00 13.9 C 94 % 12.95 C
103 11-05-2021 10:30:00 14 C 94 % 13.05 C
104 11-05-2021 10:35:00 14.1 C 94 % 13.15 C
105 11-05-2021 10:40:00 14.2 C 94 % 13.25 C
106 11-05-2021 10:45:00 14.2 C 94 % 13.25 C
107 11-05-2021 10:50:00 14.2 C 94 % 13.25 C
108 11-05-2021 10:55:00 14.2 C 94 % 13.25 C
109 11-05-2021 11:00:00 14.3 C 94 % 13.35 C
110 11-05-2021 11:05:00 14.3 C 94 % 13.35 C
111 11-05-2021 11:10:00 14.3 C 94 % 13.35 C
112 11-05-2021 11:15:00 14.3 C 94 % 13.35 C
113 11-05-2021 11:20:00 14.3 C 94 % 13.35 C
114 11-05-2021 11:25:00 14.3 C 94 % 13.35 C
115 11-05-2021 11:30:00 14.3 C 94 % 13.35 C
116 11-05-2021 11:35:00 14.3 C 94 % 13.35 C
117 11-05-2021 11:40:00 14.2 C 94 % 13.25 C
118 11-05-2021 11:45:00 14.1 C 94 % 13.15 C
119 11-05-2021 11:50:00 14.1 C 94 % 13.15 C
120 11-05-2021 11:55:00 14.1 C 94 % 13.15 C
121 11-05-2021 12:00:00 14.2 C 95 % 13.41 C
122 11-05-2021 12:05:00 14.2 C 95 % 13.41 C
123 11-05-2021 12:10:00 14.3 C 95 % 13.51 C
124 11-05-2021 12:15:00 14.2 C 95 % 13.41 C
125 11-05-2021 12:20:00 14.2 C 95 % 13.41 C
Sensor: Nr:Datum:Temp:Feuchte:Taupunkt:
Aussen-T/F 126 11-05-2021 12:25:00 14.2 C 95 % 13.41 C
127 11-05-2021 12:30:00 14.1 C 94 % 13.15 C
128 11-05-2021 12:35:00 14.1 C 94 % 13.15 C
129 11-05-2021 12:40:00 14 C 95 % 13.21 C
130 11-05-2021 12:45:00 14.1 C 95 % 13.31 C
131 11-05-2021 12:50:00 14.1 C 95 % 13.31 C
132 11-05-2021 12:55:00 14.1 C 95 % 13.31 C
133 11-05-2021 13:00:00 14.2 C 95 % 13.41 C
134 11-05-2021 13:05:00 14.2 C 95 % 13.41 C
135 11-05-2021 13:10:00 14.2 C 95 % 13.41 C
136 11-05-2021 13:15:00 14.2 C 95 % 13.41 C
137 11-05-2021 13:20:00 14.3 C 95 % 13.51 C
138 11-05-2021 13:25:00 14.2 C 95 % 13.41 C
139 11-05-2021 13:30:00 14.2 C 95 % 13.41 C
140 11-05-2021 13:35:00 14.3 C 95 % 13.51 C
141 11-05-2021 13:40:00 14.2 C 95 % 13.41 C
142 11-05-2021 13:45:00 14.2 C 95 % 13.41 C
143 11-05-2021 13:50:00 14.2 C 95 % 13.41 C
144 11-05-2021 13:55:00 14.2 C 95 % 13.41 C
145 11-05-2021 14:00:00 14.3 C 95 % 13.51 C
146 11-05-2021 14:05:00 14.4 C 95 % 13.61 C
147 11-05-2021 14:10:00 14.6 C 95 % 13.81 C
148 11-05-2021 14:15:00 14.6 C 95 % 13.81 C
149 11-05-2021 14:20:00 14.7 C 95 % 13.91 C
150 11-05-2021 14:25:00 14.7 C 94 % 13.74 C
Sensor: Nr:Datum:Temp:Feuchte:Taupunkt:
Aussen-T/F 151 11-05-2021 14:30:00 14.8 C 94 % 13.84 C
152 11-05-2021 14:35:00 14.9 C 94 % 13.94 C
153 11-05-2021 14:40:00 15 C 94 % 14.04 C
154 11-05-2021 14:45:00 15.1 C 94 % 14.14 C
155 11-05-2021 14:50:00 15.1 C 94 % 14.14 C
156 11-05-2021 14:55:00 15 C 93 % 13.88 C
157 11-05-2021 15:00:00 15.1 C 93 % 13.98 C
158 11-05-2021 15:05:00 15.2 C 94 % 14.24 C
159 11-05-2021 15:10:00 15.3 C 94 % 14.34 C
160 11-05-2021 15:15:00 15.4 C 94 % 14.44 C
161 11-05-2021 15:20:00 15.5 C 94 % 14.54 C
162 11-05-2021 15:25:00 15.5 C 94 % 14.54 C
163 11-05-2021 15:30:00 15.4 C 94 % 14.44 C
164 11-05-2021 15:35:00 15.4 C 94 % 14.44 C
165 11-05-2021 15:40:00 15.3 C 93 % 14.18 C
166 11-05-2021 15:45:00 15.2 C 93 % 14.08 C
167 11-05-2021 15:50:00 15.2 C 93 % 14.08 C
168 11-05-2021 15:55:00 15.2 C 93 % 14.08 C
169 11-05-2021 16:00:00 15.2 C 93 % 14.08 C
170 11-05-2021 16:05:00 15.2 C 93 % 14.08 C
171 11-05-2021 16:10:00 15.2 C 92 % 13.91 C

Legende:
   Min
   Max


Maximal/Minimal-Werte vom 11.05.2021 - 11.05.2021

Sensor Min Max Avg
Temp
(Aussen-T/F)
11.8 °C
11-05-2021  06:55:00
15.5 °C
11-05-2021  15:20:00
13.53 °C
Feuchte
(Aussen-T/F)
92 %
11-05-2021  16:10:00
97 %
11-05-2021  07:45:00
95.03 %
Taupunkt
(Aussen-T/F)
11.18 C
11-05-2021  06:55:00
14.54 C
11-05-2021  15:20:00
12.68 C

Die Daten stammen von einer Davis Vantage Pro 2 Wetter-Station und werden unter Linux mit der Software wview2wettercgi und aufbereitet. Alle Angaben erfolgen ohne Gewähr für ihre Vollständigkeit oder Richtigkeit.
Kontakt: Rainer Krienke krienke@uni-koblenz.de . Meine Webseiten an der Uni Koblenz oder privat.
Version: $Revision: 0.78 $